Time;durP1;ratioP1;P1;durP2;ratioP2;P2;SDS_P1;SDS_P2;PMS_P1;PMS_P2;Temp;Humidity;BMP_temperature;BMP_pressure;BME280_temperature;BME280_humidity;BME280_pressure;Samples;Min_cycle;Max_cycle;Signal;HPM_P1;HPM_P2
2022/06/30 00:00:55;;;;;;;4.65;1.17;;;18.80;68.70;;;;;;5030579;28;20091;-88
2022/06/30 00:03:22;;;;;;;5.22;1.42;;;18.80;68.70;;;;;;5029772;28;20111;-88
2022/06/30 00:05:49;;;;;;;4.18;1.00;;;18.80;68.70;;;;;;5032424;28;20042;-88
2022/06/30 00:08:16;;;;;;;6.32;1.40;;;18.80;68.70;;;;;;5032456;28;20053;-88
2022/06/30 00:10:43;;;;;;;2.15;0.93;;;18.80;68.80;;;;;;5032465;28;20052;-88
2022/06/30 00:13:11;;;;;;;3.55;1.10;;;18.80;68.80;;;;;;5033012;28;20065;-88
2022/06/30 00:15:37;;;;;;;3.42;1.20;;;18.80;68.80;;;;;;5031742;28;20399;-88
2022/06/30 00:18:05;;;;;;;6.22;1.10;;;18.70;68.80;;;;;;5032019;28;20045;-88
2022/06/30 00:20:32;;;;;;;2.95;1.20;;;18.80;68.80;;;;;;5032246;28;20068;-88
2022/06/30 00:22:59;;;;;;;3.42;1.02;;;18.80;68.90;;;;;;5032123;28;20057;-88
2022/06/30 00:25:26;;;;;;;2.47;0.90;;;18.80;68.90;;;;;;5033935;28;20103;-87
2022/06/30 00:27:53;;;;;;;3.00;1.00;;;18.80;68.90;;;;;;5030387;28;20053;-89
2022/06/30 00:30:20;;;;;;;2.78;0.90;;;18.70;69.00;;;;;;5031447;28;20096;-88
2022/06/30 00:32:47;;;;;;;4.20;1.10;;;18.70;69.00;;;;;;5031730;28;20498;-88
2022/06/30 00:35:14;;;;;;;3.42;0.98;;;18.70;69.00;;;;;;5029711;28;20112;-88
2022/06/30 00:37:41;;;;;;;2.78;1.00;;;18.70;69.00;;;;;;5033328;28;20049;-89
2022/06/30 00:40:08;;;;;;;2.42;0.88;;;18.70;69.10;;;;;;5031043;28;20488;-89
2022/06/30 00:42:35;;;;;;;2.65;1.00;;;18.70;69.20;;;;;;5031632;28;20494;-91
2022/06/30 00:45:02;;;;;;;3.83;1.27;;;18.70;69.30;;;;;;5031216;28;20509;-93
2022/06/30 00:47:29;;;;;;;4.78;1.00;;;18.70;69.30;;;;;;5031600;28;20053;-90
2022/06/30 00:49:56;;;;;;;3.17;1.05;;;18.70;69.30;;;;;;5031673;28;20533;-90
2022/06/30 00:52:25;;;;;;;4.85;1.05;;;18.60;69.40;;;;;;5033408;28;20060;-89
2022/06/30 00:54:54;;;;;;;4.35;1.15;;;18.60;69.50;;;;;;5031313;28;20046;-89
2022/06/30 00:57:23;;;;;;;3.78;1.02;;;18.60;69.60;;;;;;5031527;28;20053;-90
2022/06/30 00:59:53;;;;;;;3.40;1.00;;;18.60;69.60;;;;;;5030774;28;20041;-89
2022/06/30 01:02:20;;;;;;;3.70;1.08;;;18.60;69.70;;;;;;5031386;28;20438;-89
2022/06/30 01:04:49;;;;;;;3.25;0.93;;;18.50;69.80;;;;;;5032456;28;20051;-89
2022/06/30 01:07:16;;;;;;;4.20;1.05;;;18.50;69.90;;;;;;5030698;28;20049;-89
2022/06/30 01:12:44;;;;;;;5.05;1.10;;;18.40;70.00;;;;;;5030710;28;20058;-90
2022/06/30 01:15:15;;;;;;;3.28;1.00;;;18.40;70.10;;;;;;5029470;28;20055;-90
2022/06/30 01:17:43;;;;;;;3.47;1.23;;;18.40;70.20;;;;;;5029596;28;20049;-89
2022/06/30 01:20:11;;;;;;;3.53;1.20;;;18.40;70.40;;;;;;5031190;28;20465;-89
2022/06/30 01:22:38;;;;;;;2.78;0.85;;;18.40;70.50;;;;;;5032754;28;20041;-89
2022/06/30 01:25:08;;;;;;;3.28;0.95;;;18.40;70.50;;;;;;5031266;28;20049;-89
2022/06/30 01:27:35;;;;;;;3.00;1.00;;;18.40;70.60;;;;;;5030463;28;20058;-89
2022/06/30 01:30:03;;;;;;;3.38;1.15;;;18.40;70.70;;;;;;5030725;28;20103;-89
2022/06/30 01:32:30;;;;;;;7.43;1.20;;;18.30;70.80;;;;;;5031014;28;20048;-90
2022/06/30 01:34:57;;;;;;;2.97;1.08;;;18.30;70.90;;;;;;5030766;28;20053;-89
2022/06/30 01:37:25;;;;;;;6.80;1.08;;;18.30;71.00;;;;;;5031415;28;20107;-90
2022/06/30 01:39:52;;;;;;;2.53;1.00;;;18.20;71.10;;;;;;5030575;28;20053;-89
2022/06/30 01:42:20;;;;;;;2.28;1.00;;;18.20;71.20;;;;;;5030241;28;20049;-90
2022/06/30 01:44:47;;;;;;;3.20;0.98;;;18.20;71.30;;;;;;5029136;28;20057;-89
2022/06/30 01:47:14;;;;;;;4.20;1.30;;;18.20;71.30;;;;;;5027679;28;20057;-90
2022/06/30 01:49:41;;;;;;;2.25;0.90;;;18.20;71.40;;;;;;5031933;28;20053;-89
2022/06/30 01:52:08;;;;;;;6.93;0.95;;;18.20;71.50;;;;;;5031179;28;20071;-88
2022/06/30 01:54:35;;;;;;;3.75;0.90;;;18.10;71.50;;;;;;5030517;28;20053;-89
2022/06/30 01:57:03;;;;;;;2.22;0.85;;;18.10;71.60;;;;;;5028824;28;20053;-90
2022/06/30 01:59:29;;;;;;;2.78;0.90;;;18.00;71.70;;;;;;5030618;28;20053;-89
2022/06/30 02:01:56;;;;;;;3.50;0.93;;;18.00;71.70;;;;;;5030694;28;20513;-90
2022/06/30 02:07:08;;;;;;;4.82;0.98;;;18.00;71.80;;;;;;5031899;28;20096;-90
2022/06/30 02:09:35;;;;;;;3.17;0.90;;;17.90;71.90;;;;;;5030403;28;20414;-90
2022/06/30 02:14:48;;;;;;;3.13;0.95;;;17.90;72.00;;;;;;5030263;28;20099;-89
2022/06/30 02:17:15;;;;;;;4.65;1.17;;;17.90;72.00;;;;;;5030393;28;20046;-89
2022/06/30 02:19:42;;;;;;;3.90;1.33;;;17.80;72.10;;;;;;5031688;28;20041;-90
2022/06/30 02:22:09;;;;;;;3.05;0.93;;;17.80;72.10;;;;;;5030809;28;20049;-88
2022/06/30 02:24:36;;;;;;;3.20;0.90;;;17.80;72.20;;;;;;5030116;28;20045;-89
2022/06/30 02:27:03;;;;;;;2.70;0.93;;;17.70;72.20;;;;;;5029921;28;20095;-89
2022/06/30 02:29:30;;;;;;;2.88;1.20;;;17.70;72.30;;;;;;5030040;28;20053;-89
2022/06/30 02:31:57;;;;;;;2.28;1.02;;;17.60;72.30;;;;;;5030155;28;20049;-89
2022/06/30 02:34:24;;;;;;;4.55;0.98;;;17.60;72.40;;;;;;5030740;28;20045;-89
2022/06/30 02:36:51;;;;;;;4.18;1.02;;;17.60;72.50;;;;;;5029859;28;20069;-89
2022/06/30 02:39:18;;;;;;;4.80;1.10;;;17.60;72.50;;;;;;5028710;28;20052;-89
2022/06/30 02:41:45;;;;;;;1.88;0.85;;;17.60;72.60;;;;;;5029566;28;20049;-89
2022/06/30 02:44:12;;;;;;;3.53;1.13;;;17.50;72.70;;;;;;5030128;28;20042;-89
2022/06/30 02:46:39;;;;;;;2.20;0.90;;;17.50;72.80;;;;;;5031572;28;20061;-89
2022/06/30 02:49:06;;;;;;;2.50;1.08;;;17.50;72.80;;;;;;5028850;28;20046;-89
2022/06/30 02:51:33;;;;;;;2.65;0.90;;;17.50;72.90;;;;;;5029942;28;20045;-89
2022/06/30 02:54:00;;;;;;;2.33;0.90;;;17.50;72.90;;;;;;5029492;28;20128;-88
2022/06/30 02:56:27;;;;;;;3.72;1.15;;;17.40;73.00;;;;;;5030068;28;20056;-89
2022/06/30 02:58:54;;;;;;;3.08;1.30;;;17.50;73.10;;;;;;5033030;28;20060;-89
2022/06/30 03:01:21;;;;;;;2.28;1.00;;;17.40;73.10;;;;;;5035483;28;20410;-88
2022/06/30 03:03:48;;;;;;;3.83;0.90;;;17.40;73.20;;;;;;5032279;28;20053;-89
2022/06/30 03:06:15;;;;;;;2.90;1.10;;;17.40;73.30;;;;;;5033447;28;20045;-89
2022/06/30 03:08:42;;;;;;;2.15;0.88;;;17.40;73.30;;;;;;5033052;28;20050;-89
2022/06/30 03:11:16;;;;;;;2.50;1.10;;;17.40;73.40;;;;;;5033643;28;20624;-89
2022/06/30 03:14:02;;;;;;;2.63;1.00;;;17.40;73.40;;;;;;5032553;28;20046;-88
2022/06/30 03:16:29;;;;;;;2.40;1.00;;;17.40;73.50;;;;;;5034748;28;20422;-89
2022/06/30 03:18:57;;;;;;;2.65;0.90;;;17.40;73.50;;;;;;5033115;28;20051;-89
2022/06/30 03:21:23;;;;;;;2.42;0.90;;;17.40;73.60;;;;;;5033220;28;20057;-89
2022/06/30 03:23:50;;;;;;;2.78;1.10;;;17.40;73.60;;;;;;5032708;28;20667;-88
2022/06/30 03:26:17;;;;;;;2.38;0.90;;;17.40;73.60;;;;;;5033209;28;20052;-88
2022/06/30 03:28:44;;;;;;;2.70;1.00;;;17.40;73.60;;;;;;5032986;28;20514;-88
2022/06/30 03:31:11;;;;;;;3.53;1.30;;;17.40;73.60;;;;;;5033918;28;20076;-89
2022/06/30 03:33:38;;;;;;;2.72;0.88;;;17.30;73.70;;;;;;5032901;28;20136;-89
2022/06/30 03:36:05;;;;;;;3.20;1.20;;;17.40;73.70;;;;;;5032950;28;20052;-89
2022/06/30 03:38:32;;;;;;;2.65;0.90;;;17.30;73.70;;;;;;5032710;28;20045;-88
2022/06/30 03:40:59;;;;;;;3.67;1.00;;;17.30;73.80;;;;;;5033002;28;20103;-89
2022/06/30 03:43:26;;;;;;;3.45;1.02;;;17.30;73.90;;;;;;5033609;28;20379;-89
2022/06/30 03:45:53;;;;;;;2.60;0.90;;;17.30;73.90;;;;;;5032842;28;20050;-88
2022/06/30 03:48:20;;;;;;;2.97;1.20;;;17.30;73.90;;;;;;5032486;28;20395;-89
2022/06/30 03:50:47;;;;;;;5.40;1.10;;;17.30;74.00;;;;;;5031058;28;20103;-89
2022/06/30 03:53:14;;;;;;;2.85;1.10;;;17.30;74.10;;;;;;5031051;28;20100;-89
2022/06/30 03:55:41;;;;;;;4.22;1.20;;;17.20;74.10;;;;;;5034021;28;20049;-89
2022/06/30 03:58:08;;;;;;;2.50;1.10;;;17.30;74.20;;;;;;5033429;28;20100;-89
2022/06/30 04:00:36;;;;;;;2.78;1.00;;;17.20;74.20;;;;;;5032423;28;20057;-89
2022/06/30 04:03:03;;;;;;;3.47;1.10;;;17.20;74.30;;;;;;5032382;28;20527;-89
2022/06/30 04:05:30;;;;;;;3.65;1.20;;;17.20;74.30;;;;;;5032544;28;20509;-89
2022/06/30 04:07:57;;;;;;;2.20;0.93;;;17.20;74.40;;;;;;5032034;28;20460;-89
2022/06/30 04:10:24;;;;;;;2.55;1.10;;;17.30;74.40;;;;;;5032219;28;20053;-89
2022/06/30 04:12:51;;;;;;;6.93;1.35;;;17.20;74.40;;;;;;5032147;28;20080;-89
2022/06/30 04:15:18;;;;;;;3.40;1.20;;;17.20;74.50;;;;;;5032336;28;20506;-89
2022/06/30 04:17:45;;;;;;;3.10;1.05;;;17.20;74.50;;;;;;5032206;28;20049;-89
2022/06/30 04:20:18;;;;;;;2.35;0.90;;;17.20;74.60;;;;;;5031161;28;20057;-89
2022/06/30 04:22:50;;;;;;;3.28;1.17;;;17.30;74.60;;;;;;5032009;28;20052;-89
2022/06/30 04:25:18;;;;;;;5.38;1.02;;;17.30;74.70;;;;;;5047953;28;20050;-89
2022/06/30 04:27:51;;;;;;;4.60;1.23;;;17.30;74.70;;;;;;5029229;28;20453;-89
2022/06/30 04:33:05;;;;;;;4.32;1.10;;;17.30;74.80;;;;;;5030228;28;20037;-89
2022/06/30 04:35:33;;;;;;;2.92;1.40;;;17.30;74.80;;;;;;5031442;28;20041;-89
2022/06/30 04:38:00;;;;;;;3.72;1.30;;;17.30;74.80;;;;;;5031868;28;20050;-89
2022/06/30 04:43:13;;;;;;;3.40;1.20;;;17.30;74.90;;;;;;5032639;28;20103;-89
2022/06/30 04:45:40;;;;;;;3.03;1.23;;;17.30;75.00;;;;;;5031598;28;20061;-90
2022/06/30 04:48:07;;;;;;;3.10;1.13;;;17.30;75.00;;;;;;5031508;28;20041;-90
2022/06/30 04:50:35;;;;;;;4.13;1.30;;;17.30;75.10;;;;;;5031413;28;20046;-90
2022/06/30 04:53:02;;;;;;;4.82;1.25;;;17.30;75.20;;;;;;5031690;28;20049;-89
2022/06/30 04:55:29;;;;;;;6.82;1.45;;;17.30;75.20;;;;;;5033382;28;20049;-90
2022/06/30 04:57:55;;;;;;;3.65;1.13;;;17.30;75.30;;;;;;5031457;28;20119;-89
2022/06/30 05:00:22;;;;;;;3.95;1.33;;;17.30;75.30;;;;;;5030131;28;20053;-90
2022/06/30 05:02:49;;;;;;;4.15;1.20;;;17.30;75.30;;;;;;5031404;28;20068;-88
2022/06/30 05:05:16;;;;;;;4.53;1.38;;;17.30;75.40;;;;;;5030931;28;20045;-89
2022/06/30 05:07:43;;;;;;;5.03;1.60;;;17.30;75.40;;;;;;5032394;28;20049;-89
2022/06/30 05:10:10;;;;;;;3.30;1.30;;;17.30;75.40;;;;;;5030545;28;20053;-89
2022/06/30 05:12:37;;;;;;;7.00;1.40;;;17.30;75.50;;;;;;5029639;28;20060;-89
2022/06/30 05:15:05;;;;;;;3.45;1.30;;;17.30;75.50;;;;;;5031095;28;20053;-90
2022/06/30 05:17:35;;;;;;;6.85;1.77;;;17.30;75.50;;;;;;5031214;28;20042;-90
2022/06/30 05:20:03;;;;;;;3.97;1.60;;;17.30;75.60;;;;;;5030694;28;20060;-90
2022/06/30 05:22:30;;;;;;;5.90;1.60;;;17.30;75.60;;;;;;5032923;28;20100;-89
2022/06/30 05:27:47;;;;;;;4.50;1.70;;;17.30;75.70;;;;;;5030731;28;20061;-88
2022/06/30 05:30:15;;;;;;;4.50;1.90;;;17.30;75.70;;;;;;5030659;28;20403;-89
2022/06/30 05:32:43;;;;;;;6.60;1.90;;;17.30;75.70;;;;;;5030786;28;20046;-89
2022/06/30 05:35:10;;;;;;;8.20;1.55;;;17.30;75.70;;;;;;5030602;28;20058;-89
2022/06/30 05:37:37;;;;;;;4.53;1.50;;;17.30;75.80;;;;;;5032740;28;20045;-90
2022/06/30 05:40:05;;;;;;;5.93;1.65;;;17.30;75.80;;;;;;5029827;28;20053;-89
2022/06/30 05:42:32;;;;;;;6.20;1.40;;;17.30;75.80;;;;;;5030671;28;20422;-89
2022/06/30 05:44:59;;;;;;;8.70;1.70;;;17.30;75.80;;;;;;5030548;28;20513;-89
2022/06/30 05:47:26;;;;;;;5.47;1.90;;;17.20;75.80;;;;;;5029539;28;20120;-89
2022/06/30 05:49:53;;;;;;;5.13;1.80;;;17.30;75.80;;;;;;5030900;28;20046;-89
2022/06/30 05:52:20;;;;;;;5.93;2.10;;;17.30;75.80;;;;;;5030543;28;20102;-89
2022/06/30 05:54:47;;;;;;;5.38;1.70;;;17.20;75.80;;;;;;5030490;28;20049;-89
2022/06/30 05:57:14;;;;;;;8.27;1.90;;;17.20;75.80;;;;;;5030523;28;20041;-89
2022/06/30 05:59:41;;;;;;;6.30;1.85;;;17.20;75.80;;;;;;5030491;28;20053;-89
2022/06/30 06:02:08;;;;;;;6.88;1.98;;;17.20;75.80;;;;;;5014852;28;20426;-89
2022/06/30 06:04:35;;;;;;;5.68;1.77;;;17.20;75.80;;;;;;5026653;28;20084;-89
2022/06/30 06:07:03;;;;;;;6.95;1.77;;;17.10;75.90;;;;;;5028981;28;20052;-90
2022/06/30 06:09:30;;;;;;;6.22;1.98;;;17.20;75.90;;;;;;5030215;28;20053;-90
2022/06/30 06:11:57;;;;;;;7.60;1.90;;;17.20;75.90;;;;;;5030352;28;20099;-89
2022/06/30 06:14:24;;;;;;;5.88;1.92;;;17.20;75.90;;;;;;5030359;28;20052;-90
2022/06/30 06:16:51;;;;;;;6.95;1.90;;;17.20;75.90;;;;;;5030072;28;20041;-90
2022/06/30 06:19:18;;;;;;;4.82;1.70;;;17.10;76.00;;;;;;5029590;28;20049;-89
2022/06/30 06:21:49;;;;;;;5.90;1.95;;;17.10;76.00;;;;;;5030342;28;20049;-90
2022/06/30 06:24:19;;;;;;;8.85;2.47;;;17.10;76.00;;;;;;5030211;28;20064;-91
2022/06/30 06:26:46;;;;;;;6.65;1.77;;;17.10;76.10;;;;;;5030563;28;20045;-91
2022/06/30 06:29:14;;;;;;;5.13;2.00;;;17.10;76.10;;;;;;5030198;28;20454;-92
2022/06/30 06:31:42;;;;;;;5.78;1.98;;;17.10;76.10;;;;;;5031299;28;20108;-89
2022/06/30 06:34:09;;;;;;;9.02;2.50;;;17.10;76.10;;;;;;5035181;28;20107;-91
2022/06/30 06:36:36;;;;;;;6.60;2.42;;;17.10;76.10;;;;;;5033976;28;20048;-90
2022/06/30 06:39:04;;;;;;;5.93;2.15;;;17.10;76.20;;;;;;5033925;28;20099;-91
2022/06/30 06:41:32;;;;;;;6.82;2.20;;;17.10;76.20;;;;;;5034191;28;20056;-91
2022/06/30 06:43:58;;;;;;;6.15;2.20;;;17.10;76.20;;;;;;5034069;28;20124;-91
2022/06/30 06:46:28;;;;;;;5.20;2.08;;;17.10;76.20;;;;;;5035474;28;20050;-91
2022/06/30 06:48:59;;;;;;;6.50;2.00;;;17.10;76.20;;;;;;5033635;28;20077;-92
2022/06/30 06:51:26;;;;;;;7.80;2.30;;;17.10;76.30;;;;;;5033819;28;20049;-92
2022/06/30 06:53:53;;;;;;;6.15;2.08;;;17.10;76.30;;;;;;5034036;28;20049;-93
2022/06/30 06:56:21;;;;;;;7.72;2.30;;;17.10;76.40;;;;;;5033962;28;20057;-91
2022/06/30 06:58:48;;;;;;;6.85;2.38;;;17.00;76.40;;;;;;5033492;28;20050;-91
2022/06/30 07:01:15;;;;;;;5.55;1.83;;;17.10;76.50;;;;;;5034523;28;20426;-91
2022/06/30 07:03:42;;;;;;;6.38;2.10;;;17.10;76.40;;;;;;5033576;28;20042;-92
2022/06/30 07:06:09;;;;;;;8.52;2.10;;;17.00;76.50;;;;;;5032228;28;20045;-90
2022/06/30 07:08:36;;;;;;;9.45;2.30;;;17.00;76.50;;;;;;5032009;28;20046;-92
2022/06/30 07:11:04;;;;;;;7.50;2.38;;;17.00;76.50;;;;;;5033674;28;20045;-93
2022/06/30 07:13:32;;;;;;;7.95;2.30;;;17.00;76.50;;;;;;5034161;28;20131;-91
2022/06/30 07:15:59;;;;;;;7.53;2.22;;;17.00;76.50;;;;;;5031862;28;20062;-91
2022/06/30 07:18:27;;;;;;;8.02;2.35;;;16.90;76.50;;;;;;5033276;28;20104;-92
2022/06/30 07:20:54;;;;;;;9.27;2.53;;;17.00;76.60;;;;;;5033326;28;20045;-92
2022/06/30 07:23:21;;;;;;;5.70;1.90;;;17.00;76.60;;;;;;5033331;28;20104;-91
2022/06/30 07:25:57;;;;;;;8.02;2.20;;;16.90;76.70;;;;;;5032165;28;20085;-92
2022/06/30 07:28:25;;;;;;;7.47;2.50;;;16.90;76.70;;;;;;5028088;28;20069;-92
2022/06/30 07:31:12;;;;;;;9.02;2.47;;;16.90;76.80;;;;;;5026937;28;20776;-92
2022/06/30 07:33:42;;;;;;;6.75;2.28;;;16.90;76.80;;;;;;5029188;28;20110;-93
2022/06/30 07:36:10;;;;;;;6.22;2.30;;;16.90;76.90;;;;;;5029309;28;20045;-92
2022/06/30 07:38:39;;;;;;;4.78;2.15;;;16.90;77.00;;;;;;5033195;28;20049;-94
2022/06/30 07:41:06;;;;;;;5.22;2.03;;;16.90;77.00;;;;;;5033205;28;20050;-93
2022/06/30 07:43:33;;;;;;;6.32;2.15;;;16.90;77.10;;;;;;5032983;28;20053;-92
2022/06/30 07:46:00;;;;;;;4.75;2.33;;;16.90;77.10;;;;;;5029171;28;20052;-93
2022/06/30 07:48:27;;;;;;;7.07;2.30;;;16.90;77.20;;;;;;5024162;28;20054;-92
2022/06/30 07:50:54;;;;;;;7.40;2.67;;;16.90;77.20;;;;;;5024665;28;20056;-93
2022/06/30 07:53:21;;;;;;;6.22;2.72;;;16.90;77.20;;;;;;5034172;28;20304;-92
2022/06/30 07:55:48;;;;;;;7.95;2.53;;;16.90;77.30;;;;;;5033929;28;20120;-91
2022/06/30 07:58:15;;;;;;;6.75;2.45;;;16.90;77.30;;;;;;5029882;28;20042;-91
2022/06/30 08:00:42;;;;;;;9.65;2.80;;;16.90;77.30;;;;;;5028866;28;20053;-91
2022/06/30 08:03:10;;;;;;;5.47;2.38;;;16.90;77.30;;;;;;5029321;28;20053;-93
2022/06/30 08:05:40;;;;;;;5.15;2.45;;;16.90;77.40;;;;;;5030327;28;20042;-91
2022/06/30 08:08:07;;;;;;;5.47;2.53;;;16.90;77.50;;;;;;5018072;28;20131;-92
2022/06/30 08:10:34;;;;;;;7.35;2.60;;;16.90;77.50;;;;;;5028614;28;20050;-92
2022/06/30 08:13:01;;;;;;;6.97;2.30;;;16.90;77.60;;;;;;5023060;28;20061;-92
2022/06/30 08:15:28;;;;;;;6.88;2.40;;;16.90;77.60;;;;;;5025238;28;20058;-92
2022/06/30 08:18:00;;;;;;;7.50;2.38;;;16.90;77.60;;;;;;5039295;28;20057;-92
2022/06/30 08:20:26;;;;;;;5.45;2.38;;;16.90;77.70;;;;;;5030324;28;20050;-91
2022/06/30 08:22:53;;;;;;;7.53;2.95;;;16.90;77.70;;;;;;5030065;28;20068;-91
2022/06/30 08:25:20;;;;;;;7.22;2.63;;;16.90;77.70;;;;;;5029301;28;20060;-90
2022/06/30 08:27:47;;;;;;;5.30;2.40;;;16.90;77.70;;;;;;5028071;28;20049;-89
2022/06/30 08:30:14;;;;;;;5.80;2.28;;;16.90;77.70;;;;;;5028137;28;20115;-90
2022/06/30 08:32:41;;;;;;;6.90;2.53;;;16.90;77.70;;;;;;5017226;28;20053;-91
2022/06/30 08:35:08;;;;;;;5.85;2.58;;;16.90;77.70;;;;;;5032850;28;20127;-89
2022/06/30 08:37:35;;;;;;;7.13;2.47;;;17.00;77.70;;;;;;5029300;28;20556;-89
2022/06/30 08:42:57;;;;;;;7.82;2.88;;;17.00;77.70;;;;;;5026778;28;20620;-89
2022/06/30 08:45:27;;;;;;;5.68;2.28;;;17.00;77.70;;;;;;5028508;28;20107;-90
2022/06/30 08:47:54;;;;;;;5.50;2.40;;;17.00;77.70;;;;;;5031425;28;20046;-89
2022/06/30 08:50:22;;;;;;;6.43;2.40;;;17.00;77.70;;;;;;5031249;28;20049;-90
2022/06/30 08:52:51;;;;;;;7.50;3.15;;;17.00;77.70;;;;;;5029494;28;20495;-90
2022/06/30 08:55:23;;;;;;;6.65;2.50;;;17.00;77.70;;;;;;5030721;28;20111;-89
2022/06/30 08:57:53;;;;;;;5.70;2.20;;;17.00;77.70;;;;;;5028258;28;20052;-89
2022/06/30 09:00:20;;;;;;;5.45;2.53;;;16.90;77.60;;;;;;5028726;28;20045;-89
2022/06/30 09:02:48;;;;;;;5.13;2.38;;;17.00;77.60;;;;;;5028653;28;20453;-89
2022/06/30 09:05:15;;;;;;;7.40;2.17;;;17.00;77.60;;;;;;5028765;28;20050;-90
2022/06/30 09:07:42;;;;;;;5.97;2.35;;;17.00;77.70;;;;;;5031690;28;20054;-89
2022/06/30 09:10:29;;;;;;;8.40;2.50;;;16.90;77.70;;;;;;5032314;28;20049;-90
2022/06/30 09:13:02;;;;;;;9.60;2.22;;;16.90;77.70;;;;;;5026940;28;20084;-91
2022/06/30 09:15:39;;;;;;;5.25;2.38;;;17.00;77.70;;;;;;5027349;28;20049;-90
2022/06/30 09:18:06;;;;;;;7.60;2.22;;;17.00;77.70;;;;;;5027103;28;20136;-90
2022/06/30 09:20:35;;;;;;;4.55;2.08;;;17.00;77.70;;;;;;5028583;28;20556;-89
2022/06/30 09:23:19;;;;;;;4.45;2.17;;;17.00;77.80;;;;;;5029258;28;20576;-90
2022/06/30 09:25:49;;;;;;;4.85;2.30;;;16.90;77.80;;;;;;5028355;28;20462;-90
2022/06/30 09:28:36;;;;;;;6.40;2.33;;;17.00;77.80;;;;;;5030015;28;20045;-92
2022/06/30 09:31:03;;;;;;;6.75;2.58;;;16.90;77.80;;;;;;5030515;28;20058;-90
2022/06/30 09:33:35;;;;;;;5.47;2.50;;;17.00;77.80;;;;;;5028490;28;20042;-90
2022/06/30 09:36:21;;;;;;;7.78;2.70;;;17.00;77.90;;;;;;5028128;28;20042;-91
2022/06/30 09:39:07;;;;;;;5.97;2.30;;;17.00;77.90;;;;;;5028227;28;20077;-92
2022/06/30 09:41:42;;;;;;;4.38;2.17;;;17.00;77.90;;;;;;5027807;28;20300;-91
2022/06/30 09:44:23;;;;;;;7.97;2.50;;;17.00;77.90;;;;;;5012992;28;20049;-89
2022/06/30 09:46:57;;;;;;;6.43;2.35;;;17.00;77.90;;;;;;5030833;28;20060;-91
2022/06/30 09:49:53;;;;;;;6.07;2.28;;;17.00;77.90;;;;;;5032047;28;20049;-93
2022/06/30 09:52:25;;;;;;;5.13;2.15;;;17.00;77.90;;;;;;5029696;28;20478;-91
2022/06/30 09:54:56;;;;;;;4.00;2.35;;;17.00;77.90;;;;;;5029384;28;20050;-93
2022/06/30 09:57:27;;;;;;;6.30;2.40;;;17.00;77.90;;;;;;5030894;28;20057;-94
2022/06/30 10:00:11;;;;;;;6.10;2.38;;;17.00;77.90;;;;;;5021563;28;20108;-93
2022/06/30 10:02:41;;;;;;;5.22;2.38;;;17.00;77.90;;;;;;5012394;28;20061;-95
2022/06/30 10:05:09;;;;;;;7.07;2.38;;;17.00;77.90;;;;;;5012180;28;20042;-93
2022/06/30 10:07:38;;;;;;;5.22;2.40;;;17.00;77.90;;;;;;5012483;28;20060;-93
2022/06/30 10:10:08;;;;;;;5.85;2.22;;;17.00;77.90;;;;;;5027578;28;20084;-95
2022/06/30 10:12:36;;;;;;;5.05;2.40;;;17.00;77.90;;;;;;5028102;28;20050;-93
2022/06/30 10:15:06;;;;;;;4.53;2.03;;;17.00;77.90;;;;;;5016272;28;20045;-93
2022/06/30 10:17:46;;;;;;;6.35;2.58;;;17.00;77.90;;;;;;5024833;28;20431;-92
2022/06/30 10:20:19;;;;;;;7.25;2.22;;;17.00;77.90;;;;;;5011792;28;20045;-89
2022/06/30 10:22:46;;;;;;;6.53;2.40;;;17.00;77.90;;;;;;5029794;28;20050;-89
2022/06/30 10:25:13;;;;;;;5.68;2.75;;;17.00;77.90;;;;;;5028940;28;20065;-89
2022/06/30 10:27:41;;;;;;;8.02;2.25;;;17.00;77.90;;;;;;5026200;28;20046;-89
2022/06/30 10:30:12;;;;;;;8.13;2.65;;;17.00;77.90;;;;;;5027573;28;20065;-89
2022/06/30 10:33:04;;;;;;;5.20;2.22;;;17.00;77.90;;;;;;5026352;28;20045;-89
2022/06/30 10:35:34;;;;;;;5.30;2.30;;;17.00;78.00;;;;;;5015264;28;20045;-89
2022/06/30 10:38:12;;;;;;;6.60;2.10;;;17.00;78.00;;;;;;5028226;28;20053;-90
2022/06/30 10:40:49;;;;;;;4.60;2.10;;;17.00;78.00;;;;;;5026481;28;20049;-89
2022/06/30 10:43:16;;;;;;;8.20;2.25;;;17.00;78.00;;;;;;5029912;28;20056;-89
2022/06/30 10:45:56;;;;;;;5.32;2.30;;;17.00;78.00;;;;;;5026426;28;20084;-90
2022/06/30 10:48:24;;;;;;;6.15;2.47;;;17.00;78.00;;;;;;5027233;28;20080;-90
2022/06/30 10:50:52;;;;;;;5.82;2.40;;;17.00;78.00;;;;;;5026118;28;20498;-89
2022/06/30 10:53:42;;;;;;;4.38;2.15;;;17.00;78.00;;;;;;5026871;28;20046;-91
2022/06/30 10:56:16;;;;;;;4.50;2.05;;;17.00;78.00;;;;;;5012674;28;20129;-90
2022/06/30 10:59:08;;;;;;;5.15;2.00;;;17.00;78.00;;;;;;5028903;28;20045;-90
2022/06/30 11:01:35;;;;;;;6.35;2.40;;;17.10;78.00;;;;;;5027332;28;20064;-91
2022/06/30 11:04:03;;;;;;;5.88;2.30;;;17.00;78.00;;;;;;5026865;28;20087;-91
2022/06/30 11:06:55;;;;;;;4.15;2.22;;;17.00;78.00;;;;;;5025795;28;20659;-91
2022/06/30 11:09:43;;;;;;;5.15;2.25;;;17.00;78.00;;;;;;4991962;28;20049;-90
2022/06/30 11:12:11;;;;;;;4.95;2.28;;;17.00;78.00;;;;;;5008008;28;20414;-91
2022/06/30 11:14:59;;;;;;;6.07;2.30;;;17.00;78.00;;;;;;5008291;28;20050;-91
2022/06/30 11:17:28;;;;;;;6.68;2.35;;;17.00;78.00;;;;;;4995050;28;20060;-90
2022/06/30 11:20:11;;;;;;;5.60;2.33;;;17.00;78.00;;;;;;5010692;28;20116;-91
2022/06/30 11:22:40;;;;;;;6.45;2.13;;;17.00;78.00;;;;;;5008628;28;20136;-91
2022/06/30 11:27:17;;;;;;;5.45;2.10;;;17.00;78.10;;;;;;5011959;28;20103;-92
2022/06/30 11:28:02;;;;;;;4.82;2.00;;;17.00;78.00;;;;;;5011488;28;20058;-92
2022/06/30 11:30:34;;;;;;;5.00;2.17;;;17.00;78.00;;;;;;5011944;28;20513;-90
2022/06/30 11:33:01;;;;;;;5.20;2.10;;;17.00;78.00;;;;;;5011298;28;20777;-92
2022/06/30 11:35:29;;;;;;;4.95;2.30;;;17.00;78.00;;;;;;5011638;28;20058;-92
2022/06/30 11:37:57;;;;;;;5.43;2.30;;;17.00;78.10;;;;;;5011187;28;20050;-92
2022/06/30 11:40:24;;;;;;;5.35;2.67;;;17.00;78.00;;;;;;5012674;28;20061;-93
2022/06/30 11:42:53;;;;;;;6.88;2.72;;;17.00;78.10;;;;;;5011770;28;20585;-92
2022/06/30 11:45:23;;;;;;;6.45;2.30;;;17.00;78.10;;;;;;4996049;28;20104;-93
2022/06/30 11:47:54;;;;;;;5.90;2.65;;;17.00;78.10;;;;;;5030609;28;20482;-91
2022/06/30 11:50:26;;;;;;;5.47;2.33;;;16.90;78.10;;;;;;5028635;28;20046;-94
2022/06/30 11:52:55;;;;;;;5.40;2.20;;;17.00;78.10;;;;;;5034037;28;20136;-93
2022/06/30 11:55:27;;;;;;;4.97;2.47;;;17.00;78.10;;;;;;5032993;28;20465;-93
2022/06/30 11:57:54;;;;;;;9.38;2.63;;;17.00;78.20;;;;;;5031403;28;20053;-92
2022/06/30 12:00:24;;;;;;;4.90;2.33;;;17.00;78.10;;;;;;5026298;28;20045;-92
2022/06/30 12:02:52;;;;;;;6.75;2.45;;;17.00;78.20;;;;;;5024887;28;20054;-93
2022/06/30 12:05:21;;;;;;;4.97;2.45;;;17.00;78.10;;;;;;5030075;28;20137;-92
2022/06/30 12:07:49;;;;;;;5.30;2.40;;;17.00;78.10;;;;;;5032504;28;20049;-91
2022/06/30 12:10:21;;;;;;;5.78;2.88;;;17.00;78.10;;;;;;5031495;28;20049;-92
2022/06/30 12:12:58;;;;;;;5.47;2.50;;;17.00;78.10;;;;;;5030155;28;20136;-91
2022/06/30 12:15:25;;;;;;;5.00;2.10;;;17.00;78.10;;;;;;5029508;28;20525;-91
2022/06/30 12:17:56;;;;;;;4.80;2.38;;;16.90;78.00;;;;;;5028936;28;20053;-91
2022/06/30 12:20:27;;;;;;;5.38;2.38;;;16.90;78.00;;;;;;5030780;28;20053;-91
2022/06/30 12:22:55;;;;;;;4.63;2.30;;;17.00;78.00;;;;;;5031579;28;20060;-90
2022/06/30 12:25:22;;;;;;;4.35;2.08;;;16.90;78.00;;;;;;5032001;28;20081;-91
2022/06/30 12:27:58;;;;;;;4.90;2.10;;;16.90;78.00;;;;;;5024727;28;20049;-92
2022/06/30 12:30:35;;;;;;;14.68;2.65;;;16.90;78.00;;;;;;5030337;28;20052;-93
2022/06/30 12:33:05;;;;;;;4.72;2.17;;;16.90;78.00;;;;;;5029564;28;20053;-91
2022/06/30 12:35:34;;;;;;;7.00;2.30;;;16.90;78.00;;;;;;5029503;28;20041;-92
2022/06/30 12:38:20;;;;;;;6.40;2.25;;;16.90;78.00;;;;;;5029980;28;20096;-94
2022/06/30 12:40:48;;;;;;;6.35;2.40;;;16.90;78.00;;;;;;5029076;28;20056;-93
2022/06/30 12:43:17;;;;;;;8.48;2.55;;;16.90;78.00;;;;;;5033030;28;20056;-93
2022/06/30 12:45:48;;;;;;;5.93;2.45;;;16.90;78.00;;;;;;5029251;28;20045;-92
2022/06/30 12:48:53;;;;;;;5.75;2.63;;;16.90;78.00;;;;;;5030728;28;20045;-91
2022/06/30 12:51:32;;;;;;;5.40;2.20;;;16.80;78.00;;;;;;5029201;28;20601;-93
2022/06/30 12:54:08;;;;;;;4.55;2.65;;;16.80;78.10;;;;;;5030969;28;20052;-94
2022/06/30 12:56:36;;;;;;;5.13;2.25;;;16.80;78.10;;;;;;5029796;28;20056;-92
2022/06/30 12:59:04;;;;;;;5.28;2.50;;;16.80;78.10;;;;;;5031126;28;20048;-93
2022/06/30 13:01:41;;;;;;;12.60;2.42;;;16.80;78.20;;;;;;5028502;28;20049;-93
2022/06/30 13:04:25;;;;;;;7.20;2.90;;;16.80;78.20;;;;;;5031790;28;20050;-93
2022/06/30 13:06:54;;;;;;;5.07;2.50;;;16.70;78.20;;;;;;5028142;28;20076;-95
2022/06/30 13:09:25;;;;;;;5.85;2.25;;;16.70;78.30;;;;;;5031403;28;20046;-92
2022/06/30 13:11:57;;;;;;;5.57;2.50;;;16.70;78.30;;;;;;5029444;28;20124;-94
2022/06/30 13:14:26;;;;;;;4.93;2.60;;;16.70;78.40;;;;;;5032029;28;20045;-94
2022/06/30 13:16:55;;;;;;;5.72;2.70;;;16.70;78.40;;;;;;5029295;28;20077;-93